createdAt,value
2018-03-21T00:01:11.405Z,90.40
2018-03-21T00:03:41.046Z,90.80
2018-03-21T00:06:10.111Z,90.80
2018-03-21T00:08:38.924Z,91.20
2018-03-21T00:11:09.156Z,92.60
2018-03-21T00:13:38.150Z,92.60
2018-03-21T00:16:07.083Z,92.40
2018-03-21T00:18:36.120Z,92.50
2018-03-21T00:21:04.957Z,92.90
2018-03-21T00:23:33.857Z,93.60
2018-03-21T00:26:02.853Z,93.10
2018-03-21T00:28:31.753Z,93.40
2018-03-21T00:31:00.661Z,93.20
2018-03-21T00:33:29.609Z,93.10
2018-03-21T00:35:58.658Z,93.70
2018-03-21T00:38:27.614Z,94.50
2018-03-21T00:40:57.245Z,95.70
2018-03-21T00:43:26.052Z,95.70
2018-03-21T00:45:55.142Z,95.70
2018-03-21T00:48:24.011Z,96.10
2018-03-21T00:50:52.866Z,96.30
2018-03-21T00:53:22.130Z,96.10
2018-03-21T00:55:51.064Z,95.70
2018-03-21T00:58:19.931Z,96.20
2018-03-21T01:00:49.007Z,96.40
2018-03-21T01:03:17.980Z,96.50
2018-03-21T01:05:47.669Z,97.20
2018-03-21T01:08:17.363Z,96.10
2018-03-21T01:10:46.185Z,96.10
2018-03-21T01:13:14.967Z,95.70
2018-03-21T01:15:43.767Z,95.20
2018-03-21T01:18:12.606Z,95.70
2018-03-21T01:20:42.683Z,95.80
2018-03-21T01:23:11.770Z,95.70
2018-03-21T01:25:40.605Z,95.70
2018-03-21T01:28:09.456Z,95.80
2018-03-21T01:30:38.871Z,95.10
2018-03-21T01:33:07.818Z,94.90
2018-03-21T01:35:36.806Z,95.10
2018-03-21T01:38:06.840Z,95.70
2018-03-21T01:40:36.117Z,95.70
2018-03-21T01:43:04.861Z,95.30
2018-03-21T01:45:33.752Z,95.40
2018-03-21T01:48:02.703Z,95.20
2018-03-21T01:50:31.529Z,95.20
2018-03-21T01:53:10.325Z,95.90
2018-03-21T01:55:39.130Z,96.40
2018-03-21T01:58:07.997Z,97.10
2018-03-21T02:00:36.800Z,97.10
2018-03-21T02:03:05.825Z,96.30
2018-03-21T02:05:34.747Z,96.30
2018-03-21T02:08:03.565Z,96.90
2018-03-21T02:10:32.374Z,97.60
2018-03-21T02:13:01.928Z,98.10
2018-03-21T02:15:31.567Z,97.30
2018-03-21T02:18:00.552Z,97.30
2018-03-21T02:20:29.402Z,97.30
2018-03-21T02:22:58.334Z,97.40
2018-03-21T02:25:27.468Z,97.20
2018-03-21T02:27:56.477Z,97.00
2018-03-21T02:30:25.252Z,97.30
2018-03-21T02:32:54.278Z,96.80
2018-03-21T02:35:23.240Z,97.20
2018-03-21T02:37:52.656Z,97.90
2018-03-21T02:40:21.520Z,98.00
2018-03-21T02:42:50.378Z,98.00
2018-03-21T02:45:19.421Z,97.80
2018-03-21T02:47:49.942Z,99.00
2018-03-21T02:50:18.758Z,98.90
2018-03-21T02:52:47.701Z,99.30
2018-03-21T02:55:16.874Z,99.90
2018-03-21T02:57:45.760Z,99.40
2018-03-21T03:00:14.676Z,99.50
2018-03-21T03:02:44.512Z,98.90
2018-03-21T03:05:13.866Z,98.40
2018-03-21T03:07:42.756Z,97.80
2018-03-21T03:10:12.173Z,97.60
2018-03-21T03:12:41.008Z,98.00
2018-03-21T03:15:09.831Z,98.30
2018-03-21T03:17:38.814Z,98.40
2018-03-21T03:20:08.460Z,98.60
2018-03-21T03:22:37.598Z,98.60
2018-03-21T03:25:06.447Z,98.30
2018-03-21T03:27:35.267Z,98.00
2018-03-21T03:30:04.378Z,97.80
2018-03-21T03:32:33.121Z,97.70
2018-03-21T03:35:01.933Z,97.90
2018-03-21T03:37:31.234Z,97.80
2018-03-21T03:40:00.073Z,97.40
2018-03-21T03:42:29.067Z,97.40
2018-03-21T03:44:58.275Z,97.20
2018-03-21T03:47:27.154Z,96.50
2018-03-21T03:49:56.908Z,95.80
2018-03-21T03:52:25.817Z,95.80
2018-03-21T03:54:55.188Z,96.40
2018-03-21T03:57:23.987Z,97.00
2018-03-21T03:59:53.818Z,97.30
2018-03-21T04:02:23.227Z,97.30
2018-03-21T04:04:52.108Z,96.40
2018-03-21T04:07:20.901Z,97.10
2018-03-21T04:09:49.736Z,95.90
2018-03-21T04:12:19.460Z,95.10
2018-03-21T04:14:48.282Z,95.10
2018-03-21T04:17:18.779Z,94.80
2018-03-21T04:19:47.742Z,94.80
2018-03-21T04:22:17.406Z,95.20
2018-03-21T04:24:46.337Z,95.10
2018-03-21T04:27:15.989Z,95.00
2018-03-21T04:29:46.544Z,95.60
2018-03-21T04:32:15.515Z,95.60
2018-03-21T04:34:44.572Z,95.10
2018-03-21T04:37:13.660Z,95.50
2018-03-21T04:39:42.503Z,95.50
2018-03-21T04:42:11.483Z,95.60
2018-03-21T04:44:40.517Z,94.80
2018-03-21T04:47:09.964Z,95.80
2018-03-21T04:49:38.939Z,95.40
2018-03-21T04:52:08.729Z,95.10
2018-03-21T04:54:37.951Z,95.10
2018-03-21T04:57:08.023Z,92.90
2018-03-21T04:59:37.223Z,92.90
2018-03-21T05:02:06.426Z,92.70
2018-03-21T05:04:35.445Z,92.90
2018-03-21T05:07:04.895Z,92.90
2018-03-21T05:09:33.737Z,92.20
2018-03-21T05:12:02.602Z,92.10
2018-03-21T05:14:31.778Z,91.70
2018-03-21T05:17:00.714Z,92.00
2018-03-21T05:19:29.678Z,92.70
2018-03-21T05:21:58.871Z,91.90
2018-03-21T05:24:27.656Z,90.70
2018-03-21T05:26:56.644Z,90.10
2018-03-21T05:29:25.657Z,90.20
2018-03-21T05:31:55.238Z,91.20
2018-03-21T05:34:24.320Z,90.80
2018-03-21T05:36:53.637Z,91.00
2018-03-21T05:39:22.584Z,90.30
2018-03-21T05:41:52.173Z,88.90
2018-03-21T05:44:21.473Z,88.70
2018-03-21T05:46:50.420Z,87.30
2018-03-21T05:49:19.250Z,87.50
2018-03-21T05:51:48.133Z,83.70
2018-03-21T05:54:17.049Z,82.40
2018-03-21T05:56:45.908Z,80.70
2018-03-21T05:59:14.695Z,79.80
2018-03-21T06:01:43.688Z,78.50
2018-03-21T06:04:12.717Z,81.70
2018-03-21T06:06:41.717Z,82.50
2018-03-21T06:09:10.969Z,83.10
2018-03-21T06:11:39.861Z,83.40
2018-03-21T06:14:08.721Z,84.20
2018-03-21T06:16:37.919Z,83.40
2018-03-21T06:19:08.179Z,81.80
2018-03-21T06:21:36.950Z,81.80
2018-03-21T06:24:05.957Z,79.70
2018-03-21T06:26:35.544Z,75.80
2018-03-21T06:29:04.300Z,76.40
2018-03-21T06:31:34.000Z,76.10
2018-03-21T06:34:03.574Z,75.90
2018-03-21T06:36:32.403Z,76.10
2018-03-21T06:39:01.358Z,71.70
2018-03-21T06:41:30.445Z,68.90
2018-03-21T06:43:59.318Z,65.90
2018-03-21T06:46:28.131Z,65.40
2018-03-21T06:48:57.277Z,63.50
2018-03-21T06:51:26.156Z,59.50
2018-03-21T06:53:55.938Z,62.60
2018-03-21T06:56:24.727Z,62.40
2018-03-21T06:58:53.648Z,59.50
2018-03-21T07:01:23.188Z,55.70
2018-03-21T07:03:52.297Z,55.70
2018-03-21T07:06:21.134Z,53.00
2018-03-21T07:08:50.642Z,49.80
2018-03-21T07:11:19.470Z,49.80
2018-03-21T07:14:00.252Z,49.80
2018-03-21T07:16:41.721Z,46.40
2018-03-21T07:19:11.021Z,46.40
2018-03-21T07:21:40.907Z,47.20
2018-03-21T07:24:09.833Z,47.10
2018-03-21T07:26:38.589Z,46.40
2018-03-21T07:29:07.405Z,45.50
2018-03-21T07:31:37.144Z,45.10
2018-03-21T07:34:06.294Z,45.00
2018-03-21T07:36:35.519Z,44.60
2018-03-21T07:39:04.628Z,45.50
2018-03-21T07:41:33.465Z,45.20
2018-03-21T07:44:02.919Z,43.50
2018-03-21T07:46:31.882Z,42.20
2018-03-21T07:49:00.648Z,42.90
2018-03-21T07:51:29.537Z,40.60
2018-03-21T07:53:58.365Z,38.50
2018-03-21T07:56:27.144Z,37.60
2018-03-21T07:58:56.265Z,38.20
2018-03-21T08:01:25.445Z,39.60
2018-03-21T08:03:54.389Z,39.40
2018-03-21T08:06:23.536Z,40.20
2018-03-21T08:08:52.385Z,38.40
2018-03-21T08:11:21.175Z,37.40
2018-03-21T08:13:50.735Z,37.00
2018-03-21T08:16:19.572Z,37.00
2018-03-21T08:18:48.524Z,37.90
2018-03-21T08:21:17.340Z,37.50
2018-03-21T08:23:46.193Z,38.90
2018-03-21T08:26:16.449Z,37.20
2018-03-21T08:28:46.010Z,35.70
2018-03-21T08:31:14.859Z,35.70
2018-03-21T08:33:43.644Z,34.90
2018-03-21T08:36:12.744Z,33.70
2018-03-21T08:38:41.559Z,35.00
2018-03-21T08:41:10.386Z,36.50
2018-03-21T08:43:39.321Z,34.50
2018-03-21T08:46:09.135Z,36.30
2018-03-21T08:48:37.989Z,36.30
2018-03-21T08:51:07.017Z,35.40
2018-03-21T08:53:36.211Z,37.30
2018-03-21T08:56:05.086Z,35.90
2018-03-21T08:58:34.775Z,30.60
2018-03-21T09:01:03.693Z,30.60
2018-03-21T09:03:32.455Z,34.80
2018-03-21T09:06:02.339Z,35.40
2018-03-21T09:08:31.153Z,35.40
2018-03-21T09:11:00.127Z,37.10
2018-03-21T09:13:29.040Z,33.70
2018-03-21T09:15:57.937Z,33.90
2018-03-21T09:18:26.953Z,32.80
2018-03-21T09:20:56.657Z,32.90
2018-03-21T09:23:26.257Z,32.10
2018-03-21T09:25:55.076Z,32.20
2018-03-21T09:28:23.990Z,34.10
2018-03-21T09:30:52.827Z,30.90
2018-03-21T09:33:22.431Z,34.00
2018-03-21T09:35:51.254Z,34.10
2018-03-21T09:38:20.985Z,32.70
2018-03-21T09:40:50.749Z,31.70
2018-03-21T09:43:19.643Z,31.80
2018-03-21T09:45:48.549Z,33.00
2018-03-21T09:48:17.994Z,34.60
2018-03-21T09:50:46.997Z,34.40
2018-03-21T09:53:16.668Z,34.90
2018-03-21T09:55:45.595Z,31.90
2018-03-21T09:58:15.226Z,33.20
2018-03-21T10:00:44.158Z,33.30
2018-03-21T10:03:13.119Z,29.90
2018-03-21T10:05:42.071Z,30.60
2018-03-21T10:08:10.841Z,31.90
2018-03-21T10:10:39.693Z,32.50
2018-03-21T10:13:09.807Z,33.70
2018-03-21T10:15:38.692Z,33.70
2018-03-21T10:18:08.663Z,34.60
2018-03-21T10:20:37.537Z,33.90
2018-03-21T10:23:06.857Z,33.40
2018-03-21T10:25:35.914Z,30.30
2018-03-21T10:28:04.778Z,31.10
2018-03-21T10:30:37.250Z,32.10
2018-03-21T10:33:06.332Z,29.00
2018-03-21T10:35:35.213Z,30.80
2018-03-21T10:38:04.124Z,30.90
2018-03-21T10:40:32.937Z,30.30
2018-03-21T10:43:02.020Z,33.20
2018-03-21T10:45:31.042Z,30.70
2018-03-21T10:47:59.906Z,28.40
2018-03-21T10:50:29.230Z,27.90
2018-03-21T10:52:58.965Z,27.40
2018-03-21T10:55:27.789Z,27.20
2018-03-21T10:57:56.578Z,28.40
2018-03-21T11:00:25.556Z,26.80
2018-03-21T11:03:00.130Z,28.60
2018-03-21T11:05:30.012Z,26.30
2018-03-21T11:07:59.684Z,26.30
2018-03-21T11:10:28.628Z,26.50
2018-03-21T11:12:57.787Z,26.60
2018-03-21T11:15:26.646Z,26.60
2018-03-21T11:17:55.737Z,26.40
2018-03-21T11:20:24.771Z,23.30
2018-03-21T11:22:53.817Z,27.20
2018-03-21T11:25:22.805Z,23.40
2018-03-21T11:27:51.710Z,24.10
2018-03-21T11:30:20.557Z,22.20
2018-03-21T11:32:49.447Z,23.00
2018-03-21T11:35:19.395Z,22.50
2018-03-21T11:37:48.221Z,22.50
2018-03-21T11:40:17.946Z,24.80
2018-03-21T11:42:46.841Z,24.80
2018-03-21T11:45:16.481Z,26.20
2018-03-21T11:47:46.124Z,22.20
2018-03-21T11:50:14.931Z,22.20
2018-03-21T11:52:43.880Z,25.10
2018-03-21T11:55:12.757Z,24.90
2018-03-21T11:57:42.749Z,23.90
2018-03-21T12:00:11.848Z,23.90
2018-03-21T12:02:40.700Z,22.80
2018-03-21T12:05:09.820Z,25.30
2018-03-21T12:07:38.721Z,22.70
2018-03-21T12:10:07.559Z,25.40
2018-03-21T12:12:37.421Z,24.50
2018-03-21T12:15:06.252Z,24.50
2018-03-21T12:17:35.160Z,24.40
2018-03-21T12:20:04.509Z,25.20
2018-03-21T12:22:33.375Z,25.00
2018-03-21T12:25:03.090Z,23.90
2018-03-21T12:27:32.432Z,23.90
2018-03-21T12:30:02.553Z,23.20
2018-03-21T12:32:31.665Z,23.20
2018-03-21T12:35:00.556Z,22.80
2018-03-21T12:37:29.871Z,23.80
2018-03-21T12:39:58.816Z,22.90
2018-03-21T12:42:28.474Z,25.70
2018-03-21T12:44:58.469Z,28.60
2018-03-21T12:47:28.334Z,30.80
2018-03-21T12:49:57.272Z,30.70
2018-03-21T12:52:26.903Z,31.10
2018-03-21T12:54:56.573Z,31.60
2018-03-21T12:57:26.376Z,31.70
2018-03-21T12:59:56.008Z,31.00
2018-03-21T13:02:25.752Z,31.60
2018-03-21T13:04:54.991Z,31.40
2018-03-21T13:07:24.807Z,31.80
2018-03-21T13:09:53.993Z,32.10
2018-03-21T13:12:22.960Z,30.80
2018-03-21T13:14:52.768Z,31.00
2018-03-21T13:17:21.565Z,31.00
2018-03-21T13:19:50.506Z,30.30
2018-03-21T13:22:20.189Z,32.50
2018-03-21T13:24:49.006Z,32.50
2018-03-21T13:27:18.659Z,32.30
2018-03-21T13:29:47.535Z,32.30
2018-03-21T13:32:16.393Z,31.50
2018-03-21T13:34:45.294Z,31.90
2018-03-21T13:37:15.183Z,33.20
2018-03-21T13:39:44.305Z,33.00
2018-03-21T13:42:14.067Z,31.50
2018-03-21T13:44:43.440Z,32.90
2018-03-21T13:47:12.518Z,33.70
2018-03-21T13:49:41.632Z,33.30
2018-03-21T13:52:10.580Z,34.20
2018-03-21T13:54:39.476Z,33.90
2018-03-21T13:57:09.158Z,34.20
2018-03-21T13:59:38.749Z,33.90
2018-03-21T14:02:08.149Z,33.80
2018-03-21T14:04:37.403Z,34.50
2018-03-21T14:07:06.448Z,34.60
2018-03-21T14:09:35.544Z,35.70
2018-03-21T14:12:04.683Z,35.50
2018-03-21T14:14:34.456Z,37.10
2018-03-21T14:17:03.453Z,37.10
2018-03-21T14:19:32.475Z,38.00
2018-03-21T14:22:01.631Z,37.30
2018-03-21T14:24:32.010Z,38.70
2018-03-21T14:27:01.111Z,39.00
2018-03-21T14:29:30.356Z,39.00
2018-03-21T14:31:59.460Z,38.20
2018-03-21T14:34:29.925Z,37.80
2018-03-21T14:36:59.023Z,38.90
2018-03-21T14:39:29.727Z,39.20
2018-03-21T14:42:00.521Z,39.70
2018-03-21T14:44:30.374Z,40.20
2018-03-21T14:46:59.297Z,40.10
2018-03-21T14:49:28.329Z,40.10
2018-03-21T14:51:57.496Z,40.60
2018-03-21T14:54:27.371Z,40.70
2018-03-21T14:56:56.539Z,40.60
2018-03-21T14:59:26.003Z,41.70
2018-03-21T15:01:54.995Z,41.50
2018-03-21T15:04:23.968Z,41.20
2018-03-21T15:06:53.659Z,42.70
2018-03-21T15:09:22.673Z,42.70
2018-03-21T15:11:52.102Z,43.50
2018-03-21T15:14:21.091Z,44.20
2018-03-21T15:16:50.427Z,44.30
2018-03-21T15:19:19.339Z,44.10
2018-03-21T15:21:48.479Z,44.00
2018-03-21T15:24:17.421Z,44.50
2018-03-21T15:26:46.310Z,45.40
2018-03-21T15:29:15.755Z,45.60
2018-03-21T15:31:44.816Z,45.30
2018-03-21T15:34:13.691Z,45.40
2018-03-21T15:36:42.734Z,45.40
2018-03-21T15:39:11.614Z,45.00
2018-03-21T15:41:40.599Z,44.60
2018-03-21T15:44:09.534Z,44.90
2018-03-21T15:46:39.252Z,45.80
2018-03-21T15:49:08.389Z,45.70
2018-03-21T15:51:38.086Z,45.30
2018-03-21T15:54:07.408Z,45.30
2018-03-21T15:56:36.447Z,46.10
2018-03-21T15:59:05.511Z,46.80
2018-03-21T16:01:34.487Z,46.90
2018-03-21T16:04:04.203Z,46.90
2018-03-21T16:06:33.154Z,46.90
2018-03-21T16:09:02.220Z,46.70
2018-03-21T16:11:31.323Z,46.80
2018-03-21T16:14:00.717Z,45.80
2018-03-21T16:16:29.828Z,45.90
2018-03-21T16:18:58.641Z,46.40
2018-03-21T16:21:27.511Z,46.90
2018-03-21T16:23:56.583Z,47.20
2018-03-21T16:26:25.436Z,47.90
2018-03-21T16:28:55.172Z,49.10
2018-03-21T16:31:24.429Z,49.50
2018-03-21T16:33:54.368Z,50.20
2018-03-21T16:36:23.199Z,51.00
2018-03-21T16:38:52.264Z,49.60
2018-03-21T16:41:21.383Z,50.80
2018-03-21T16:43:50.659Z,49.30
2018-03-21T16:46:20.410Z,49.70
2018-03-21T16:48:50.369Z,49.60
2018-03-21T16:51:20.522Z,49.20
2018-03-21T16:53:49.445Z,48.40
2018-03-21T16:56:18.394Z,48.20
2018-03-21T16:58:48.397Z,49.00
2018-03-21T17:01:17.425Z,49.20
2018-03-21T17:03:46.681Z,50.30
2018-03-21T17:06:15.829Z,50.30
2018-03-21T17:08:44.845Z,51.30
2018-03-21T17:11:13.726Z,51.40
2018-03-21T17:13:42.849Z,51.70
2018-03-21T17:16:11.744Z,52.00
2018-03-21T17:18:40.595Z,52.10
2018-03-21T17:21:09.591Z,51.60
2018-03-21T17:23:38.672Z,51.10
2018-03-21T17:26:07.821Z,51.70
2018-03-21T17:28:36.685Z,52.20
2018-03-21T17:31:05.542Z,51.70
2018-03-21T17:33:35.279Z,53.10
2018-03-21T17:36:04.160Z,53.10
2018-03-21T17:38:33.786Z,54.50
2018-03-21T17:41:02.727Z,54.40
2018-03-21T17:43:32.538Z,54.40
2018-03-21T17:46:01.380Z,54.20
2018-03-21T17:48:30.369Z,55.00
2018-03-21T17:50:59.228Z,55.70
2018-03-21T17:53:28.986Z,56.00
2018-03-21T17:55:58.192Z,56.00
2018-03-21T17:58:27.017Z,57.10
2018-03-21T18:00:56.691Z,59.70
2018-03-21T18:03:25.801Z,59.70
2018-03-21T18:05:54.792Z,60.30
2018-03-21T18:08:24.729Z,62.50
2018-03-21T18:10:55.005Z,62.00
2018-03-21T18:13:24.146Z,61.80
2018-03-21T18:15:53.902Z,64.00
2018-03-21T18:18:23.232Z,63.30
2018-03-21T18:20:52.408Z,64.00
2018-03-21T18:23:21.223Z,64.20
2018-03-21T18:25:50.132Z,64.40
2018-03-21T18:28:19.274Z,64.30
2018-03-21T18:30:48.712Z,65.20
2018-03-21T18:33:17.726Z,65.70
2018-03-21T18:35:47.037Z,66.50
2018-03-21T18:38:16.032Z,67.80
2018-03-21T18:40:46.610Z,68.20
2018-03-21T18:43:15.652Z,68.20
2018-03-21T18:45:44.951Z,67.60
2018-03-21T18:48:14.955Z,69.20
2018-03-21T18:50:45.191Z,70.40
2018-03-21T18:53:14.430Z,70.40
2018-03-21T18:55:43.628Z,71.60
2018-03-21T18:58:14.728Z,70.70
2018-03-21T19:00:43.911Z,71.20
2018-03-21T19:03:13.285Z,71.30
2018-03-21T19:05:42.390Z,71.80
2018-03-21T19:08:11.343Z,71.20
2018-03-21T19:10:40.346Z,70.80
2018-03-21T19:13:09.633Z,70.80
2018-03-21T19:15:38.617Z,71.10
2018-03-21T19:18:07.700Z,70.30
2018-03-21T19:20:36.720Z,70.20
2018-03-21T19:23:05.921Z,70.20
2018-03-21T19:25:34.952Z,70.60
2018-03-21T19:28:04.727Z,71.10
2018-03-21T19:30:33.705Z,71.00
2018-03-21T19:33:02.768Z,71.80
2018-03-21T19:35:31.674Z,73.20
2018-03-21T19:38:01.294Z,74.80
2018-03-21T19:40:31.879Z,76.10
2018-03-21T19:43:01.600Z,76.10
2018-03-21T19:45:30.737Z,76.10
2018-03-21T19:47:59.773Z,77.20
2018-03-21T19:50:29.471Z,77.40
2018-03-21T19:52:58.777Z,77.40
2018-03-21T19:55:27.720Z,77.70
2018-03-21T19:57:57.324Z,78.00
2018-03-21T20:00:26.359Z,78.00
2018-03-21T20:02:55.300Z,78.00
2018-03-21T20:05:24.835Z,78.20
2018-03-21T20:07:53.690Z,78.20
2018-03-21T20:10:22.744Z,78.90
2018-03-21T20:12:52.017Z,79.50
2018-03-21T20:15:20.886Z,79.80
2018-03-21T20:17:50.425Z,81.20
2018-03-21T20:20:19.375Z,81.10
2018-03-21T20:22:53.013Z,81.40
2018-03-21T20:25:22.674Z,81.40
2018-03-21T20:27:56.920Z,81.80
2018-03-21T20:30:30.253Z,82.30
2018-03-21T20:33:02.240Z,83.00
2018-03-21T20:35:39.911Z,83.90
2018-03-21T20:38:15.276Z,83.60
2018-03-21T20:40:45.780Z,83.50
2018-03-21T20:43:16.627Z,83.20
2018-03-21T20:45:46.667Z,84.00
2018-03-21T20:48:15.682Z,84.50
2018-03-21T20:50:46.941Z,85.70
2018-03-21T20:53:16.621Z,85.60
2018-03-21T20:55:48.621Z,86.20
2018-03-21T20:58:21.434Z,86.80
2018-03-21T21:00:51.810Z,86.40
2018-03-21T21:03:21.338Z,86.80
2018-03-21T21:05:52.657Z,86.00
2018-03-21T21:08:22.631Z,85.00
2018-03-21T21:10:58.187Z,84.60
2018-03-21T21:13:32.049Z,84.20
2018-03-21T21:16:05.555Z,84.60
2018-03-21T21:18:39.680Z,85.00
2018-03-21T21:21:12.570Z,84.90
2018-03-21T21:23:43.679Z,86.00
2018-03-21T21:26:12.604Z,85.80
2018-03-21T21:28:41.693Z,86.40
2018-03-21T21:31:10.618Z,86.70
2018-03-21T21:33:39.555Z,86.00
2018-03-21T21:36:09.188Z,84.10
2018-03-21T21:38:39.349Z,84.70
2018-03-21T21:41:08.972Z,85.80
2018-03-21T21:43:38.557Z,85.30
2018-03-21T21:46:07.509Z,85.30
2018-03-21T21:48:36.423Z,84.30
2018-03-21T21:51:05.366Z,84.80
2018-03-21T21:53:35.012Z,86.20
2018-03-21T21:56:03.833Z,86.20
2018-03-21T21:58:32.871Z,86.50
2018-03-21T22:01:01.727Z,87.10
2018-03-21T22:03:30.933Z,87.90
2018-03-21T22:06:00.550Z,87.90
2018-03-21T22:08:29.595Z,87.90
2018-03-21T22:10:58.523Z,88.90
2018-03-21T22:13:28.146Z,89.20
2018-03-21T22:15:56.948Z,88.80
2018-03-21T22:18:26.799Z,89.50
2018-03-21T22:20:55.603Z,89.50
2018-03-21T22:23:24.595Z,89.00
2018-03-21T22:25:53.377Z,89.50
2018-03-21T22:28:22.196Z,89.30
2018-03-21T22:30:51.134Z,89.90
2018-03-21T22:33:20.823Z,89.70
2018-03-21T22:35:50.620Z,89.30
2018-03-21T22:38:19.485Z,89.20
2018-03-21T22:40:48.318Z,89.90
2018-03-21T22:43:18.154Z,89.10
2018-03-21T22:45:46.992Z,89.10
2018-03-21T22:48:16.609Z,89.90
2018-03-21T22:50:45.360Z,90.20
2018-03-21T22:53:15.151Z,90.60
2018-03-21T22:55:44.876Z,91.80
2018-03-21T22:58:13.703Z,92.10
2018-03-21T23:00:42.672Z,92.00
2018-03-21T23:03:12.307Z,92.60
2018-03-21T23:05:41.436Z,92.40
2018-03-21T23:08:10.344Z,93.50
2018-03-21T23:10:39.257Z,93.50
2018-03-21T23:13:08.150Z,93.20
2018-03-21T23:15:37.070Z,93.20
2018-03-21T23:18:05.850Z,93.10
2018-03-21T23:20:35.700Z,93.80
2018-03-21T23:23:04.549Z,93.50
2018-03-21T23:25:34.166Z,93.00
2018-03-21T23:28:03.800Z,92.70
2018-03-21T23:30:32.641Z,92.70
2018-03-21T23:33:01.520Z,92.50
2018-03-21T23:35:30.698Z,92.70
2018-03-21T23:37:59.766Z,92.80
2018-03-21T23:40:28.596Z,93.40
2018-03-21T23:42:57.554Z,93.50
2018-03-21T23:45:26.565Z,93.40
2018-03-21T23:47:55.380Z,94.30
2018-03-21T23:50:24.123Z,94.40
2018-03-21T23:52:53.246Z,94.50
2018-03-21T23:55:21.992Z,94.20
2018-03-21T23:57:50.898Z,94.10
